Time,TemperatureF,DewpointF,PressureIn,WindDirection,WindDirectionDegrees,WindSpeedMPH,WindSpeedGustMPH,Humidity,HourlyPrecipIn,Conditions,Clouds,dailyrainin,SolarRadiationWatts/m^2,SoftwareType,DateUTC
2013-03-27 00:05:00,32.4,23.0,29.80,West,269,7.0,13.0,67,0.00,,,0.00,0,weatherlink.com 1.10,2013-03-27 04:05:00,
2013-03-27 00:20:00,31.8,23.0,29.80,WNW,283,7.0,13.0,69,0.00,,,0.00,0,weatherlink.com 1.10,2013-03-27 04:20:00,
2013-03-27 00:35:00,31.9,22.0,29.80,West,264,10.0,13.0,68,0.00,,,0.00,0,weatherlink.com 1.10,2013-03-27 04:35:00,
2013-03-27 00:50:00,31.9,23.0,29.80,West,262,12.0,12.0,69,0.00,,,0.00,0,weatherlink.com 1.10,2013-03-27 04:50:00,
2013-03-27 01:05:00,32.1,23.0,29.80,West,281,8.0,13.0,69,0.00,,,0.00,0,weatherlink.com 1.10,2013-03-27 05:05:00,
2013-03-27 01:20:00,32.1,23.0,29.80,West,273,8.0,13.0,68,0.00,,,0.00,0,weatherlink.com 1.10,2013-03-27 05:20:00,
2013-03-27 01:35:00,32.0,22.0,29.80,West,270,8.0,14.0,68,0.00,,,0.00,0,weatherlink.com 1.10,2013-03-27 05:35:00,
2013-03-27 01:50:00,33.0,22.0,29.80,West,259,7.0,11.0,65,0.00,,,0.00,,weatherlink.com 1.10,2013-03-27 05:50:00,
2013-03-27 02:05:00,33.2,23.0,29.80,WSW,258,9.0,13.0,65,0.00,,,0.00,,weatherlink.com 1.10,2013-03-27 06:05:00,
2013-03-27 02:20:00,33.1,22.0,29.79,West,265,9.0,13.0,65,0.00,,,0.00,,weatherlink.com 1.10,2013-03-27 06:20:00,
2013-03-27 02:35:00,33.0,22.0,29.79,WSW,246,7.0,14.0,65,0.00,,,0.00,,weatherlink.com 1.10,2013-03-27 06:35:00,
2013-03-27 02:50:00,32.3,22.0,29.79,West,269,14.0,19.0,66,0.00,,,0.00,0,weatherlink.com 1.10,2013-03-27 06:50:00,
2013-03-27 03:05:00,32.3,22.0,29.79,West,277,15.0,19.0,66,0.00,,,0.00,0,weatherlink.com 1.10,2013-03-27 07:05:00,
2013-03-27 03:20:00,32.1,22.0,29.78,WNW,291,10.0,21.0,66,0.00,,,0.00,0,weatherlink.com 1.10,2013-03-27 07:20:00,
2013-03-27 03:35:00,32.1,22.0,29.78,West,269,12.0,18.0,66,0.00,,,0.00,0,weatherlink.com 1.10,2013-03-27 07:35:00,
2013-03-27 03:50:00,32.1,22.0,29.78,WNW,288,13.0,21.0,67,0.00,,,0.00,0,weatherlink.com 1.10,2013-03-27 07:50:00,
2013-03-27 04:05:00,32.1,22.0,29.79,West,281,13.0,18.0,66,0.00,,,0.00,0,weatherlink.com 1.10,2013-03-27 08:05:00,
2013-03-27 04:20:00,32.1,22.0,29.78,West,281,12.0,15.0,66,0.00,,,0.00,0,weatherlink.com 1.10,2013-03-27 08:20:00,
2013-03-27 04:35:00,31.9,22.0,29.78,WNW,283,7.0,16.0,66,0.00,,,0.00,0,weatherlink.com 1.10,2013-03-27 08:35:00,
2013-03-27 04:50:00,31.8,22.0,29.79,West,263,12.0,15.0,67,0.00,,,0.00,0,weatherlink.com 1.10,2013-03-27 08:50:00,
2013-03-27 05:05:00,31.8,22.0,29.79,West,265,14.0,17.0,66,0.00,,,0.00,0,weatherlink.com 1.10,2013-03-27 09:05:00,
2013-03-27 05:20:00,31.9,22.0,29.79,West,274,10.0,17.0,66,0.00,,,0.00,0,weatherlink.com 1.10,2013-03-27 09:20:00,
2013-03-27 05:35:00,31.6,22.0,29.79,West,279,11.0,16.0,67,0.00,,,0.00,0,weatherlink.com 1.10,2013-03-27 09:35:00,
2013-03-27 05:50:00,31.4,22.0,29.79,WNW,282,13.0,17.0,67,0.00,,,0.00,0,weatherlink.com 1.10,2013-03-27 09:50:00,
2013-03-27 06:05:00,31.5,22.0,29.79,WNW,296,7.0,20.0,67,0.00,,,0.00,0,weatherlink.com 1.10,2013-03-27 10:05:00,
2013-03-27 06:20:00,31.3,22.0,29.79,WNW,284,7.0,17.0,68,0.00,,,0.00,0,weatherlink.com 1.10,2013-03-27 10:20:00,
2013-03-27 06:35:00,31.2,22.0,29.80,WNW,286,13.0,18.0,68,0.00,,,0.00,5,weatherlink.com 1.10,2013-03-27 10:35:00,
2013-03-27 06:50:00,31.2,22.0,29.80,West,279,11.0,20.0,68,0.00,,,0.00,12,weatherlink.com 1.10,2013-03-27 10:50:00,
2013-03-27 07:05:00,31.4,22.0,29.80,West,259,9.0,18.0,68,0.00,,,0.00,18,weatherlink.com 1.10,2013-03-27 11:05:00,
2013-03-27 07:20:00,31.5,22.0,29.80,West,275,10.0,19.0,68,0.00,,,0.00,23,weatherlink.com 1.10,2013-03-27 11:20:00,
2013-03-27 07:35:00,31.7,22.0,29.80,WSW,258,7.0,18.0,68,0.00,,,0.00,127,weatherlink.com 1.10,2013-03-27 11:35:00,
2013-03-27 07:50:00,32.1,22.0,29.80,WNW,289,10.0,18.0,67,0.00,,,0.00,183,weatherlink.com 1.10,2013-03-27 11:50:00,
2013-03-27 08:06:00,32.7,23.0,29.81,WNW,289,15.0,21.0,67,0.00,,,0.00,232,weatherlink.com 1.10,2013-03-27 12:06:00,
2013-03-27 08:21:00,33.0,23.0,29.80,WSW,254,15.0,21.0,66,0.00,,,0.00,281,weatherlink.com 1.10,2013-03-27 12:21:00,
2013-03-27 08:36:00,33.7,23.0,29.81,NW,304,16.0,20.0,65,0.00,,,0.00,334,weatherlink.com 1.10,2013-03-27 12:36:00,
2013-03-27 08:51:00,34.3,23.0,29.81,WNW,286,21.0,21.0,64,0.00,,,0.00,383,weatherlink.com 1.10,2013-03-27 12:51:00,
2013-03-27 09:07:00,34.8,23.0,29.81,WNW,288,13.0,21.0,63,0.00,,,0.00,432,weatherlink.com 1.10,2013-03-27 13:07:00,
2013-03-27 09:21:00,35.2,23.0,29.81,West,271,12.0,20.0,62,0.00,,,0.00,476,weatherlink.com 1.10,2013-03-27 13:21:00,
2013-03-27 09:36:00,36.3,24.0,29.81,WNW,292,13.0,20.0,61,0.00,,,0.00,524,weatherlink.com 1.10,2013-03-27 13:36:00,
2013-03-27 10:06:00,38.4,24.0,29.81,West,279,8.0,18.0,57,0.00,,,0.00,617,weatherlink.com 1.10,2013-03-27 14:06:00,
2013-03-27 10:21:00,38.9,25.0,29.81,West,271,8.0,21.0,57,0.00,,,0.00,638,weatherlink.com 1.10,2013-03-27 14:21:00,
2013-03-27 10:36:00,39.2,25.0,29.81,NW,315,11.0,21.0,56,0.00,,,0.00,673,weatherlink.com 1.10,2013-03-27 14:36:00,
2013-03-27 10:51:00,40.1,25.0,29.81,NW,306,14.0,22.0,56,0.00,,,0.00,705,weatherlink.com 1.10,2013-03-27 14:51:00,
2013-03-27 11:06:00,40.9,25.0,29.81,NE,40,5.0,20.0,53,0.00,,,0.00,733,weatherlink.com 1.10,2013-03-27 15:06:00,
2013-03-27 11:37:00,41.4,24.0,29.81,North,10,12.0,28.0,50,0.00,,,0.00,782,weatherlink.com 1.10,2013-03-27 15:37:00,
2013-03-27 11:52:00,41.3,24.0,29.81,NW,318,20.0,27.0,51,0.00,,,0.00,798,weatherlink.com 1.10,2013-03-27 15:52:00,
2013-03-27 12:07:00,41.5,24.0,29.80,NW,304,11.0,26.0,51,0.00,,,0.00,814,weatherlink.com 1.10,2013-03-27 16:07:00,
2013-03-27 12:22:00,41.7,24.0,29.80,WNW,299,20.0,27.0,50,0.00,,,0.00,828,weatherlink.com 1.10,2013-03-27 16:22:00,
2013-03-27 12:37:00,41.9,24.0,29.81,NW,320,16.0,26.0,49,0.00,,,0.00,835,weatherlink.com 1.10,2013-03-27 16:37:00,
2013-03-27 12:52:00,42.1,24.0,29.80,NW,323,15.0,28.0,49,0.00,,,0.00,838,weatherlink.com 1.10,2013-03-27 16:52:00,
2013-03-27 13:07:00,42.4,24.0,29.80,NNW,333,13.0,23.0,48,0.00,,,0.00,838,weatherlink.com 1.10,2013-03-27 17:07:00,
2013-03-27 13:22:00,42.8,24.0,29.79,West,271,11.0,24.0,48,0.00,,,0.00,840,weatherlink.com 1.10,2013-03-27 17:22:00,
2013-03-27 13:37:00,43.1,25.0,29.80,WNW,296,13.0,28.0,49,0.00,,,0.00,865,weatherlink.com 1.10,2013-03-27 17:37:00,
2013-03-27 13:52:00,43.1,24.0,29.80,NW,311,17.0,25.0,48,0.00,,,0.00,942,weatherlink.com 1.10,2013-03-27 17:52:00,
2013-03-27 14:07:00,42.8,25.0,29.80,NNE,20,7.0,29.0,49,0.00,,,0.00,918,weatherlink.com 1.10,2013-03-27 18:07:00,
2013-03-27 14:22:00,41.9,24.0,29.80,NW,319,11.0,28.0,50,0.00,,,0.00,383,weatherlink.com 1.10,2013-03-27 18:22:00,
2013-03-27 14:37:00,41.6,25.0,29.80,WNW,294,11.0,27.0,51,0.00,,,0.00,476,weatherlink.com 1.10,2013-03-27 18:37:00,
2013-03-27 14:52:00,41.7,25.0,29.80,WNW,288,13.0,26.0,52,0.00,,,0.00,439,weatherlink.com 1.10,2013-03-27 18:52:00,
2013-03-27 15:07:00,41.9,25.0,29.81,NNW,344,10.0,23.0,52,0.00,,,0.00,295,weatherlink.com 1.10,2013-03-27 19:07:00,
2013-03-27 15:22:00,41.6,25.0,29.81,NW,317,13.0,20.0,53,0.00,,,0.00,396,weatherlink.com 1.10,2013-03-27 19:22:00,
2013-03-27 15:37:00,41.5,26.0,29.81,NW,305,10.0,23.0,54,0.00,,,0.00,503,weatherlink.com 1.10,2013-03-27 19:37:00,
2013-03-27 15:52:00,41.7,26.0,29.81,NW,326,4.0,21.0,53,0.00,,,0.00,508,weatherlink.com 1.10,2013-03-27 19:52:00,
2013-03-27 16:07:00,41.0,26.0,29.82,North,360,15.0,22.0,55,0.00,,,0.00,260,weatherlink.com 1.10,2013-03-27 20:07:00,
2013-03-27 16:22:00,40.5,26.0,29.82,NNW,336,12.0,22.0,57,0.00,,,0.00,241,weatherlink.com 1.10,2013-03-27 20:22:00,
2013-03-27 16:37:00,40.3,27.0,29.83,NNW,348,9.0,18.0,59,0.00,,,0.00,221,weatherlink.com 1.10,2013-03-27 20:37:00,
2013-03-27 16:52:00,39.7,27.0,29.83,NW,312,9.0,25.0,60,0.00,,,0.00,167,weatherlink.com 1.10,2013-03-27 20:52:00,
2013-03-27 17:07:00,39.5,27.0,29.84,North,5,7.0,19.0,62,0.00,,,0.00,163,weatherlink.com 1.10,2013-03-27 21:07:00,
2013-03-27 17:22:00,39.1,28.0,29.84,NNW,329,10.0,20.0,64,0.00,,,0.00,116,weatherlink.com 1.10,2013-03-27 21:22:00,
2013-03-27 17:37:00,38.3,28.0,29.85,NNW,345,10.0,21.0,67,0.00,,,0.00,102,weatherlink.com 1.10,2013-03-27 21:37:00,
2013-03-27 17:52:00,38.1,29.0,29.86,NNW,328,11.0,24.0,69,0.00,,,0.00,104,weatherlink.com 1.10,2013-03-27 21:52:00,
2013-03-27 18:07:00,37.9,29.0,29.86,NW,313,17.0,22.0,70,0.00,,,0.00,63,weatherlink.com 1.10,2013-03-27 22:07:00,
2013-03-27 18:22:00,37.4,29.0,29.86,NW,310,11.0,19.0,71,0.00,,,0.00,42,weatherlink.com 1.10,2013-03-27 22:22:00,
2013-03-27 18:37:00,37.0,29.0,29.87,NW,324,12.0,23.0,72,0.00,,,0.00,32,weatherlink.com 1.10,2013-03-27 22:37:00,
2013-03-27 18:52:00,36.9,29.0,29.87,NW,306,7.0,20.0,73,0.00,,,0.00,11,weatherlink.com 1.10,2013-03-27 22:52:00,
2013-03-27 19:07:00,36.6,29.0,29.88,NW,320,9.0,21.0,74,0.00,,,0.00,0,weatherlink.com 1.10,2013-03-27 23:07:00,
2013-03-27 19:22:00,36.4,29.0,29.88,NW,310,12.0,22.0,75,0.00,,,0.00,0,weatherlink.com 1.10,2013-03-27 23:22:00,
2013-03-27 19:37:00,36.0,29.0,29.89,NNW,343,4.0,20.0,77,0.00,,,0.00,0,weatherlink.com 1.10,2013-03-27 23:37:00,
2013-03-27 19:52:00,35.6,30.0,29.89,WNW,300,6.0,21.0,79,0.00,,,0.00,0,weatherlink.com 1.10,2013-03-27 23:52:00,
2013-03-27 20:07:00,35.4,30.0,29.90,WNW,292,11.0,18.0,80,0.00,,,0.00,0,weatherlink.com 1.10,2013-03-28 00:07:00,
2013-03-27 20:22:00,35.0,30.0,29.90,NW,317,9.0,17.0,82,0.00,,,0.00,0,weatherlink.com 1.10,2013-03-28 00:22:00,
2013-03-27 20:37:00,34.5,31.0,29.91,NW,320,11.0,17.0,85,0.00,,,0.00,0,weatherlink.com 1.10,2013-03-28 00:37:00,
2013-03-27 20:52:00,33.9,31.0,29.91,NW,306,13.0,16.0,88,0.00,,,0.00,0,weatherlink.com 1.10,2013-03-28 00:52:00,
2013-03-27 21:07:00,33.8,31.0,29.91,WNW,297,10.0,14.0,88,0.00,,,0.00,0,weatherlink.com 1.10,2013-03-28 01:07:00,
2013-03-27 21:22:00,33.9,31.0,29.92,WNW,292,9.0,14.0,87,0.00,,,0.00,0,weatherlink.com 1.10,2013-03-28 01:22:00,
2013-03-27 21:37:00,34.1,30.0,29.92,WNW,300,8.0,15.0,86,0.00,,,0.00,0,weatherlink.com 1.10,2013-03-28 01:37:00,
2013-03-27 21:53:00,34.2,30.0,29.92,WNW,302,2.0,15.0,85,0.00,,,0.00,0,weatherlink.com 1.10,2013-03-28 01:53:00,
2013-03-27 22:08:00,34.1,30.0,29.92,NW,325,4.0,12.0,86,0.00,,,0.00,0,weatherlink.com 1.10,2013-03-28 02:08:00,
2013-03-27 22:23:00,34.0,30.0,29.92,NW,317,3.0,12.0,86,0.00,,,0.00,0,weatherlink.com 1.10,2013-03-28 02:23:00,
2013-03-27 22:38:00,33.8,30.0,29.92,NW,313,2.0,11.0,87,0.00,,,0.00,0,weatherlink.com 1.10,2013-03-28 02:38:00,
2013-03-27 22:53:00,33.7,31.0,29.92,NW,321,4.0,9.0,88,0.00,,,0.00,0,weatherlink.com 1.10,2013-03-28 02:53:00,
2013-03-27 23:08:00,33.4,31.0,29.92,NNW,327,6.0,8.0,89,0.00,,,0.00,0,weatherlink.com 1.10,2013-03-28 03:08:00,
2013-03-27 23:23:00,33.3,31.0,29.92,NNW,337,7.0,8.0,90,0.00,,,0.00,0,weatherlink.com 1.10,2013-03-28 03:23:00,
2013-03-27 23:38:00,33.2,31.0,29.92,NNW,344,2.0,10.0,90,0.00,,,0.00,0,weatherlink.com 1.10,2013-03-28 03:38:00,
2013-03-27 23:53:00,32.8,31.0,29.93,North,355,6.0,9.0,92,0.00,,,0.00,0,weatherlink.com 1.10,2013-03-28 03:53:00,